createdAt,value
2019-06-07T00:00:04.140Z,238.20
2019-06-07T00:00:40.293Z,238.90
2019-06-07T00:01:16.347Z,238.20
2019-06-07T00:01:50.066Z,251.00
2019-06-07T00:02:25.533Z,245.30
2019-06-07T00:03:01.061Z,247.90
2019-06-07T00:03:36.242Z,257.90
2019-06-07T00:04:13.527Z,263.10
2019-06-07T00:04:47.257Z,237.90
2019-06-07T00:05:22.900Z,220.50
2019-06-07T00:05:58.291Z,223.40
2019-06-07T00:06:33.817Z,250.00
2019-06-07T00:07:10.269Z,265.90
2019-06-07T00:07:44.527Z,255.70
2019-06-07T00:08:27.300Z,261.60
2019-06-07T00:08:55.540Z,241.20
2019-06-07T00:09:30.814Z,249.30
2019-06-07T00:10:06.831Z,264.50
2019-06-07T00:10:41.846Z,258.40
2019-06-07T00:11:20.322Z,254.70
2019-06-07T00:11:52.562Z,230.80
2019-06-07T00:12:28.198Z,232.60
2019-06-07T00:13:03.569Z,245.60
2019-06-07T00:13:38.825Z,241.20
2019-06-07T00:14:16.058Z,249.30
2019-06-07T00:14:49.827Z,238.10
2019-06-07T00:15:28.713Z,256.20
2019-06-07T00:16:00.856Z,256.10
2019-06-07T00:16:36.127Z,243.10
2019-06-07T00:17:15.105Z,230.40
2019-06-07T00:17:47.047Z,241.70
2019-06-07T00:18:25.856Z,269.50
2019-06-07T00:18:58.063Z,268.40
2019-06-07T00:19:33.482Z,262.60
2019-06-07T00:20:13.175Z,252.50
2019-06-07T00:20:44.341Z,272.90
2019-06-07T00:21:20.373Z,272.40
2019-06-07T00:22:16.016Z,245.10
2019-06-07T00:22:33.371Z,232.60
2019-06-07T00:23:05.916Z,237.10
2019-06-07T00:23:41.258Z,233.10
2019-06-07T00:24:18.642Z,244.50
2019-06-07T00:24:52.001Z,232.10
2019-06-07T00:25:27.229Z,247.60
2019-06-07T00:26:02.597Z,251.30
2019-06-07T00:26:57.146Z,258.30
2019-06-07T00:27:15.017Z,262.80
2019-06-07T00:27:48.752Z,248.10
2019-06-07T00:28:24.458Z,236.50
2019-06-07T00:28:59.676Z,242.40
2019-06-07T00:29:35.459Z,245.50
2019-06-07T00:30:34.926Z,249.60
2019-06-07T00:30:52.177Z,239.50
2019-06-07T00:31:24.142Z,236.90
2019-06-07T00:31:57.682Z,253.20
2019-06-07T00:32:33.103Z,255.00
2019-06-07T00:33:11.032Z,272.60
2019-06-07T00:33:44.116Z,252.00
2019-06-07T00:34:22.130Z,271.00
2019-06-07T00:34:54.639Z,276.50
2019-06-07T00:35:30.069Z,264.20
2019-06-07T00:36:05.423Z,258.70
2019-06-07T00:36:40.584Z,252.80
2019-06-07T00:37:16.431Z,238.50
2019-06-07T00:37:51.681Z,254.50
2019-06-07T00:38:27.214Z,243.10
2019-06-07T00:39:02.881Z,226.50
2019-06-07T00:39:38.512Z,231.50
2019-06-07T00:40:19.737Z,248.50
2019-06-07T00:40:49.250Z,267.70
2019-06-07T00:41:24.944Z,254.50
2019-06-07T00:42:00.458Z,230.30
2019-06-07T00:42:36.024Z,257.70
2019-06-07T00:43:14.155Z,266.80
2019-06-07T00:43:46.937Z,255.50
2019-06-07T00:44:23.368Z,223.30
2019-06-07T00:44:58.034Z,232.80
2019-06-07T00:45:33.392Z,253.30
2019-06-07T00:46:08.720Z,285.50
2019-06-07T00:46:44.097Z,266.60
2019-06-07T00:47:23.631Z,249.10
2019-06-07T00:47:54.507Z,250.40
2019-06-07T00:48:32.936Z,280.00
2019-06-07T00:49:05.640Z,270.90
2019-06-07T00:49:41.751Z,254.80
2019-06-07T00:50:16.367Z,262.90
2019-06-07T00:50:51.585Z,241.70
2019-06-07T00:51:26.720Z,226.30
2019-06-07T00:52:02.014Z,260.60
2019-06-07T00:53:17.280Z,229.90
2019-06-07T00:53:48.364Z,231.80
2019-06-07T00:54:24.846Z,240.80
2019-06-07T00:54:59.147Z,249.80
2019-06-07T00:55:34.562Z,250.00
2019-06-07T00:56:09.691Z,273.10
2019-06-07T00:56:44.875Z,248.00
2019-06-07T00:57:21.620Z,248.30
2019-06-07T00:57:55.681Z,260.40
2019-06-07T00:58:30.718Z,265.10
2019-06-07T00:59:11.165Z,258.60
2019-06-07T00:59:41.522Z,232.10
2019-06-07T01:00:18.343Z,243.00
2019-06-07T01:00:52.581Z,259.80
2019-06-07T01:01:27.756Z,277.60
2019-06-07T01:02:03.509Z,236.60
2019-06-07T01:02:38.918Z,249.50
2019-06-07T01:03:14.995Z,272.60
2019-06-07T01:03:50.212Z,248.20
2019-06-07T01:04:26.061Z,231.00
2019-06-07T01:05:01.041Z,246.70
2019-06-07T01:05:36.512Z,269.70
2019-06-07T01:06:12.602Z,276.90
2019-06-07T01:06:47.241Z,251.90
2019-06-07T01:07:24.311Z,232.00
2019-06-07T01:07:58.187Z,239.80
2019-06-07T01:08:33.650Z,258.60
2019-06-07T01:09:09.379Z,264.30
2019-06-07T01:09:44.860Z,267.30
2019-06-07T01:10:42.655Z,270.10
2019-06-07T01:10:55.494Z,228.80
2019-06-07T01:11:30.625Z,224.90
2019-06-07T01:12:05.919Z,247.90
2019-06-07T01:12:41.248Z,240.30
2019-06-07T01:13:18.810Z,236.30
2019-06-07T01:13:52.375Z,250.20
2019-06-07T01:14:28.370Z,255.10
2019-06-07T01:15:02.974Z,244.60
2019-06-07T01:15:38.404Z,247.30
2019-06-07T01:16:13.855Z,236.20
2019-06-07T01:16:57.012Z,243.10
2019-06-07T01:17:39.877Z,253.10
2019-06-07T01:18:33.715Z,226.80
2019-06-07T01:18:39.946Z,246.90
2019-06-07T01:19:11.417Z,246.00
2019-06-07T01:19:46.951Z,240.40
2019-06-07T01:20:24.195Z,224.40
2019-06-07T01:20:57.838Z,233.10
2019-06-07T01:21:33.003Z,238.60
2019-06-07T01:22:08.637Z,245.60
2019-06-07T01:22:43.903Z,259.10
2019-06-07T01:23:59.852Z,253.50
2019-06-07T01:24:11.047Z,251.70
2019-06-07T01:24:30.064Z,255.00
2019-06-07T01:25:05.453Z,233.70
2019-06-07T01:25:40.929Z,234.50
2019-06-07T01:26:18.925Z,237.10
2019-06-07T01:26:52.076Z,243.50
2019-06-07T01:27:28.678Z,262.10
2019-06-07T01:28:03.035Z,256.10
2019-06-07T01:28:38.298Z,263.10
2019-06-07T01:29:13.705Z,265.40
2019-06-07T01:29:49.433Z,243.60
2019-06-07T01:30:26.505Z,225.60
2019-06-07T01:31:00.205Z,224.00
2019-06-07T01:31:35.431Z,234.80
2019-06-07T01:32:10.917Z,261.10
2019-06-07T01:32:46.345Z,224.90
2019-06-07T01:33:23.500Z,247.80
2019-06-07T01:33:56.944Z,250.70
2019-06-07T01:34:32.213Z,239.50
2019-06-07T01:35:07.560Z,262.30
2019-06-07T01:35:43.173Z,261.20
2019-06-07T01:36:19.574Z,237.20
2019-06-07T01:36:53.884Z,249.70
2019-06-07T01:37:30.320Z,271.30
2019-06-07T01:38:04.732Z,268.40
2019-06-07T01:38:40.513Z,254.80
2019-06-07T01:39:16.336Z,256.10
2019-06-07T01:39:51.426Z,244.40
2019-06-07T01:40:30.473Z,242.10
2019-06-07T01:41:02.278Z,248.10
2019-06-07T01:41:37.748Z,238.20
2019-06-07T01:42:12.889Z,247.10
2019-06-07T01:42:48.170Z,253.10
2019-06-07T01:43:28.407Z,273.20
2019-06-07T01:43:59.092Z,253.90
2019-06-07T01:44:34.224Z,230.30
2019-06-07T01:45:09.999Z,251.60
2019-06-07T01:45:45.459Z,273.70
2019-06-07T01:46:21.375Z,273.50
2019-06-07T01:46:56.181Z,246.70
2019-06-07T01:47:32.090Z,241.70
2019-06-07T01:48:06.878Z,240.80
2019-06-07T01:48:49.337Z,255.20
2019-06-07T01:49:17.394Z,263.80
2019-06-07T01:49:52.873Z,268.60
2019-06-07T01:50:29.769Z,248.50
2019-06-07T01:51:03.822Z,226.20
2019-06-07T01:51:39.259Z,232.30
2019-06-07T01:52:14.828Z,245.40
2019-06-07T01:52:50.099Z,247.80
2019-06-07T01:53:26.431Z,268.00
2019-06-07T01:54:48.647Z,252.60
2019-06-07T01:54:56.052Z,240.20
2019-06-07T01:55:11.581Z,222.50
2019-06-07T01:55:47.182Z,247.10
2019-06-07T01:56:24.446Z,245.60
2019-06-07T01:56:57.990Z,242.30
2019-06-07T01:57:45.671Z,258.90
2019-06-07T01:58:09.001Z,253.10
2019-06-07T01:58:44.332Z,251.20
2019-06-07T01:59:21.878Z,251.00
2019-06-07T01:59:55.061Z,254.00
2019-06-07T02:00:32.526Z,250.70
2019-06-07T02:01:05.601Z,249.40
2019-06-07T02:01:41.078Z,254.70
2019-06-07T02:02:17.676Z,266.40
2019-06-07T02:02:51.836Z,273.80
2019-06-07T02:03:32.246Z,259.30
2019-06-07T02:04:03.265Z,262.60
2019-06-07T02:04:38.199Z,263.00
2019-06-07T02:05:13.482Z,266.70
2019-06-07T02:05:48.873Z,271.40
2019-06-07T02:06:27.980Z,270.70
2019-06-07T02:06:59.682Z,265.50
2019-06-07T02:07:35.066Z,260.30
2019-06-07T02:08:10.401Z,257.60
2019-06-07T02:08:45.673Z,266.50
2019-06-07T02:09:21.007Z,246.50
2019-06-07T02:09:56.190Z,250.20
2019-06-07T02:10:33.586Z,259.70
2019-06-07T02:11:06.825Z,238.40
2019-06-07T02:11:42.061Z,263.70
2019-06-07T02:12:28.021Z,259.30
2019-06-07T02:12:53.046Z,269.60
2019-06-07T02:13:30.591Z,276.70
2019-06-07T02:14:03.961Z,267.70
2019-06-07T02:14:39.443Z,242.90
2019-06-07T02:15:14.925Z,243.10
2019-06-07T02:15:50.346Z,243.10
2019-06-07T02:16:29.155Z,262.90
2019-06-07T02:17:01.067Z,261.00
2019-06-07T02:17:36.297Z,258.50
2019-06-07T02:18:11.791Z,247.30
2019-06-07T02:19:01.288Z,254.60
2019-06-07T02:19:24.216Z,257.30
2019-06-07T02:19:57.606Z,263.10
2019-06-07T02:20:34.564Z,256.90
2019-06-07T02:21:08.467Z,253.00
2019-06-07T02:21:43.748Z,257.30
2019-06-07T02:22:21.309Z,257.90
2019-06-07T02:22:54.547Z,268.60
2019-06-07T02:23:31.594Z,267.10
2019-06-07T02:24:05.538Z,257.80
2019-06-07T02:24:40.984Z,240.20
2019-06-07T02:25:37.139Z,235.80
2019-06-07T02:25:51.516Z,230.80
2019-06-07T02:26:29.945Z,244.00
2019-06-07T02:27:02.540Z,255.10
2019-06-07T02:27:37.768Z,260.00
2019-06-07T02:28:27.670Z,263.20
2019-06-07T02:28:48.486Z,249.20
2019-06-07T02:29:25.409Z,249.80
2019-06-07T02:29:59.429Z,276.20
2019-06-07T02:30:44.919Z,297.10
2019-06-07T02:31:10.057Z,262.00
2019-06-07T02:31:45.481Z,249.90
2019-06-07T02:32:21.763Z,257.60
2019-06-07T02:32:56.036Z,259.50
2019-06-07T02:33:35.152Z,293.80
2019-06-07T02:34:06.826Z,265.60
2019-06-07T02:34:42.285Z,283.20
2019-06-07T02:35:17.941Z,267.50
2019-06-07T02:35:53.739Z,262.30
2019-06-07T02:36:35.188Z,272.20
2019-06-07T02:37:04.708Z,274.70
2019-06-07T02:37:40.021Z,270.00
2019-06-07T02:38:15.598Z,261.80
2019-06-07T02:38:50.933Z,264.80
2019-06-07T02:39:28.820Z,259.20
2019-06-07T02:40:01.962Z,267.00
2019-06-07T02:40:37.678Z,273.40
2019-06-07T02:41:13.007Z,281.40
2019-06-07T02:41:48.350Z,284.10
2019-06-07T02:42:26.127Z,273.70
2019-06-07T02:42:59.345Z,271.50
2019-06-07T02:43:36.992Z,281.70
2019-06-07T02:44:10.642Z,273.90
2019-06-07T02:44:45.878Z,259.90
2019-06-07T02:45:24.208Z,247.00
2019-06-07T02:46:12.382Z,276.30
2019-06-07T02:46:40.181Z,268.20
2019-06-07T02:47:07.669Z,281.00
2019-06-07T02:47:43.294Z,276.30
2019-06-07T02:48:18.473Z,259.40
2019-06-07T02:48:54.121Z,270.20
2019-06-07T02:49:36.088Z,282.40
2019-06-07T02:50:05.048Z,291.10
2019-06-07T02:50:40.324Z,285.50
2019-06-07T02:51:15.693Z,262.50
2019-06-07T02:51:51.231Z,269.90
2019-06-07T02:52:30.797Z,248.00
2019-06-07T02:53:01.758Z,267.30
2019-06-07T02:53:40.103Z,282.60
2019-06-07T02:54:12.873Z,283.80
2019-06-07T02:54:48.319Z,275.70
2019-06-07T02:55:27.432Z,284.20
2019-06-07T02:56:34.807Z,289.50
2019-06-07T02:56:48.752Z,291.40
2019-06-07T02:57:11.026Z,286.90
2019-06-07T02:57:46.663Z,290.80
2019-06-07T02:58:21.926Z,309.50
2019-06-07T02:58:57.488Z,311.70
2019-06-07T02:59:56.717Z,296.20
2019-06-07T03:00:40.535Z,282.30
2019-06-07T03:01:00.730Z,273.20
2019-06-07T03:01:18.924Z,269.40
2019-06-07T03:01:54.242Z,264.00
2019-06-07T03:02:34.289Z,290.10
2019-06-07T03:03:05.176Z,303.60
2019-06-07T03:03:40.592Z,273.00
2019-06-07T03:04:17.135Z,261.30
2019-06-07T03:04:51.403Z,271.40
2019-06-07T03:05:27.376Z,273.50
2019-06-07T03:06:02.275Z,289.80
2019-06-07T03:06:43.244Z,290.90
2019-06-07T03:07:13.025Z,294.90
2019-06-07T03:07:48.685Z,276.10
2019-06-07T03:08:24.231Z,272.20
2019-06-07T03:08:59.581Z,278.40
2019-06-07T03:09:36.937Z,293.90
2019-06-07T03:10:10.191Z,305.50
2019-06-07T03:10:45.458Z,291.00
2019-06-07T03:11:20.946Z,310.90
2019-06-07T03:11:56.073Z,291.90
2019-06-07T03:12:33.477Z,285.60
2019-06-07T03:13:06.804Z,307.70
2019-06-07T03:13:42.129Z,298.70
2019-06-07T03:14:17.813Z,308.70
2019-06-07T03:14:52.936Z,294.70
2019-06-07T03:15:37.349Z,273.90
2019-06-07T03:16:03.800Z,278.40
2019-06-07T03:16:39.236Z,284.50
2019-06-07T03:17:14.694Z,305.90
2019-06-07T03:17:50.224Z,305.50
2019-06-07T03:18:28.491Z,271.80
2019-06-07T03:19:01.291Z,270.70
2019-06-07T03:19:37.817Z,287.30
2019-06-07T03:20:12.392Z,300.30
2019-06-07T03:21:02.803Z,295.20
2019-06-07T03:21:23.325Z,307.50
2019-06-07T03:21:58.784Z,269.90
2019-06-07T03:22:37.997Z,281.90
2019-06-07T03:23:09.587Z,265.90
2019-06-07T03:23:44.593Z,258.00
2019-06-07T03:24:20.261Z,277.20
2019-06-07T03:24:55.897Z,291.80
2019-06-07T03:25:33.530Z,306.30
2019-06-07T03:26:07.104Z,286.30
2019-06-07T03:27:34.686Z,291.30
2019-06-07T03:27:53.004Z,303.80
2019-06-07T03:28:29.996Z,272.60
2019-06-07T03:29:04.056Z,275.10
2019-06-07T03:29:41.162Z,297.70
2019-06-07T03:31:01.528Z,284.50
2019-06-07T03:31:28.452Z,292.90
2019-06-07T03:32:01.376Z,265.30
2019-06-07T03:32:45.705Z,287.60
2019-06-07T03:33:12.280Z,293.00
2019-06-07T03:33:47.707Z,300.30
2019-06-07T03:34:23.076Z,274.00
2019-06-07T03:34:58.451Z,264.30
2019-06-07T03:35:35.331Z,299.90
2019-06-07T03:36:23.364Z,294.50
2019-06-07T03:36:45.043Z,279.00
2019-06-07T03:37:20.534Z,286.80
2019-06-07T03:37:55.892Z,293.10
2019-06-07T03:38:34.412Z,290.60
2019-06-07T03:39:06.929Z,284.60
2019-06-07T03:39:42.054Z,283.30
2019-06-07T03:40:17.438Z,275.80
2019-06-07T03:40:52.814Z,279.50
2019-06-07T03:41:29.319Z,281.60
2019-06-07T03:42:06.632Z,275.20
2019-06-07T03:42:40.217Z,244.90
2019-06-07T03:43:14.626Z,243.10
2019-06-07T03:43:50.073Z,261.30
2019-06-07T03:44:27.802Z,273.40
2019-06-07T03:45:01.187Z,282.30
2019-06-07T03:45:41.194Z,252.00
2019-06-07T03:46:12.252Z,253.70
2019-06-07T03:46:47.580Z,269.60
2019-06-07T03:47:23.146Z,263.70
2019-06-07T03:47:58.512Z,288.50
2019-06-07T03:48:36.436Z,280.20
2019-06-07T03:49:09.612Z,279.60
2019-06-07T03:49:44.874Z,255.50
2019-06-07T03:50:20.363Z,249.60
2019-06-07T03:51:04.301Z,274.10
2019-06-07T03:51:32.934Z,259.80
2019-06-07T03:52:06.685Z,276.80
2019-06-07T03:52:42.205Z,273.20
2019-06-07T03:53:17.774Z,269.70
2019-06-07T03:53:53.210Z,257.00
2019-06-07T03:54:29.546Z,258.90
2019-06-07T03:55:03.746Z,264.30
2019-06-07T03:55:41.269Z,271.30
2019-06-07T03:56:15.384Z,286.70
2019-06-07T03:56:49.937Z,276.20
2019-06-07T03:57:25.409Z,282.40
2019-06-07T03:58:30.689Z,265.80
2019-06-07T03:58:47.946Z,275.80
2019-06-07T03:59:12.146Z,244.00
2019-06-07T03:59:47.555Z,225.70
2019-06-07T04:00:23.127Z,263.60
2019-06-07T04:01:01.985Z,261.10
2019-06-07T04:01:34.899Z,243.80
2019-06-07T04:02:09.026Z,236.50
2019-06-07T04:02:44.662Z,235.20
2019-06-07T04:03:33.609Z,259.20
2019-06-07T04:03:55.166Z,276.50
2019-06-07T04:04:32.286Z,273.60
2019-06-07T04:05:06.219Z,234.60
2019-06-07T04:05:43.635Z,239.90
2019-06-07T04:06:16.983Z,248.90
2019-06-07T04:06:52.582Z,249.00
2019-06-07T04:07:28.925Z,257.10
2019-06-07T04:08:03.512Z,257.30
2019-06-07T04:08:41.955Z,257.70
2019-06-07T04:09:14.369Z,234.10
2019-06-07T04:09:49.913Z,239.10
2019-06-07T04:10:44.848Z,252.00
2019-06-07T04:11:00.962Z,261.00
2019-06-07T04:11:39.423Z,277.00
2019-06-07T04:12:11.905Z,272.30
2019-06-07T04:12:47.435Z,254.30
2019-06-07T04:13:22.895Z,256.30
2019-06-07T04:13:58.259Z,245.70
2019-06-07T04:14:35.022Z,249.60
2019-06-07T04:15:08.973Z,264.00
2019-06-07T04:15:44.413Z,265.70
2019-06-07T04:16:20.029Z,235.40
2019-06-07T04:16:55.173Z,271.40
2019-06-07T04:17:32.065Z,263.00
2019-06-07T04:18:05.818Z,252.10
2019-06-07T04:18:42.428Z,259.00
2019-06-07T04:19:16.720Z,255.30
2019-06-07T04:19:52.295Z,248.90
2019-06-07T04:20:29.380Z,243.40
2019-06-07T04:21:03.225Z,243.00
2019-06-07T04:21:42.529Z,229.40
2019-06-07T04:22:14.333Z,238.20
2019-06-07T04:22:49.810Z,244.90
2019-06-07T04:23:28.087Z,246.00
2019-06-07T04:24:00.414Z,261.70
2019-06-07T04:24:38.909Z,230.00
2019-06-07T04:25:11.120Z,233.30
2019-06-07T04:25:46.656Z,263.60
2019-06-07T04:26:22.456Z,266.30
2019-06-07T04:26:58.130Z,255.00
2019-06-07T04:27:35.533Z,252.80
2019-06-07T04:28:08.457Z,260.60
2019-06-07T04:30:00.034Z,249.40
2019-06-07T04:30:07.520Z,239.80
2019-06-07T04:30:32.132Z,250.80
2019-06-07T04:31:06.396Z,247.20
2019-06-07T04:31:42.882Z,239.70
2019-06-07T04:32:17.417Z,239.20
2019-06-07T04:32:52.853Z,259.70
2019-06-07T04:33:28.793Z,233.10
2019-06-07T04:34:03.476Z,237.00
2019-06-07T04:34:42.608Z,261.00
2019-06-07T04:35:14.001Z,261.70
2019-06-07T04:35:49.983Z,273.00
2019-06-07T04:36:41.845Z,243.80
2019-06-07T04:37:00.624Z,256.70
2019-06-07T04:37:39.306Z,255.20
2019-06-07T04:38:11.541Z,257.30
2019-06-07T04:38:47.075Z,275.30
2019-06-07T04:39:22.347Z,266.60
2019-06-07T04:39:57.685Z,265.70
2019-06-07T04:40:34.400Z,245.50
2019-06-07T04:41:08.399Z,238.80
2019-06-07T04:41:43.752Z,244.80
2019-06-07T04:42:19.091Z,243.90
2019-06-07T04:42:54.265Z,238.40
2019-06-07T04:43:31.046Z,229.50
2019-06-07T04:44:05.245Z,236.30
2019-06-07T04:44:42.612Z,238.50
2019-06-07T04:45:33.193Z,264.10
2019-06-07T04:45:51.649Z,260.10
2019-06-07T04:46:26.993Z,232.30
2019-06-07T04:47:02.122Z,228.10
2019-06-07T04:47:41.716Z,229.40
2019-06-07T04:48:13.233Z,235.30
2019-06-07T04:48:49.008Z,232.80
2019-06-07T04:49:24.353Z,233.10
2019-06-07T04:49:59.844Z,225.40
2019-06-07T04:50:37.819Z,206.70
2019-06-07T04:51:10.450Z,219.60
2019-06-07T04:51:45.937Z,215.70
2019-06-07T04:52:21.185Z,230.10
2019-06-07T04:52:56.230Z,239.20
2019-06-07T04:53:35.285Z,228.50
2019-06-07T04:54:07.252Z,228.70
2019-06-07T04:54:45.878Z,243.80
2019-06-07T04:55:17.760Z,239.80
2019-06-07T04:55:53.538Z,224.60
2019-06-07T04:56:30.054Z,210.60
2019-06-07T04:57:04.206Z,216.50
2019-06-07T04:57:42.717Z,185.90
2019-06-07T04:58:15.238Z,180.70
2019-06-07T04:58:50.971Z,207.70
2019-06-07T05:00:04.340Z,236.30
2019-06-07T05:00:22.289Z,226.70
2019-06-07T05:00:58.981Z,148.90
2019-06-07T05:01:26.906Z,163.90
2019-06-07T05:01:48.416Z,175.70
2019-06-07T05:02:23.649Z,177.40
2019-06-07T05:02:58.829Z,193.90
2019-06-07T05:03:37.073Z,203.40
2019-06-07T05:04:09.645Z,178.50
2019-06-07T05:04:44.993Z,179.60
2019-06-07T05:05:20.652Z,190.60
2019-06-07T05:05:55.998Z,173.70
2019-06-07T05:06:34.897Z,169.30
2019-06-07T05:07:06.553Z,145.40
2019-06-07T05:07:46.053Z,119.30
2019-06-07T05:08:27.432Z,118.60
2019-06-07T05:08:52.922Z,119.90
2019-06-07T05:09:29.972Z,136.90
2019-06-07T05:10:04.142Z,156.20
2019-06-07T05:10:43.447Z,142.90
2019-06-07T05:11:15.285Z,145.30
2019-06-07T05:11:50.462Z,145.70
2019-06-07T05:12:26.045Z,133.80
2019-06-07T05:13:01.587Z,137.10
2019-06-07T05:13:39.008Z,160.10
2019-06-07T05:14:12.701Z,157.00
2019-06-07T05:14:47.786Z,135.60
2019-06-07T05:15:23.413Z,164.90
2019-06-07T05:15:58.892Z,143.30
2019-06-07T05:16:36.625Z,119.40
2019-06-07T05:17:09.743Z,124.50
2019-06-07T05:17:45.154Z,135.40
2019-06-07T05:18:20.645Z,135.90
2019-06-07T05:18:56.278Z,117.00
2019-06-07T05:19:35.307Z,101.70
2019-06-07T05:20:07.209Z,137.40
2019-06-07T05:20:44.551Z,136.10
2019-06-07T05:21:17.817Z,148.70
2019-06-07T05:22:04.481Z,142.20
2019-06-07T05:22:31.529Z,115.80
2019-06-07T05:23:04.964Z,91.70
2019-06-07T05:24:05.651Z,89.00
2019-06-07T05:24:15.873Z,131.30
2019-06-07T05:24:50.906Z,130.70
2019-06-07T05:25:26.373Z,138.10
2019-06-07T05:26:01.912Z,138.40
2019-06-07T05:26:39.161Z,153.10
2019-06-07T05:27:12.669Z,141.60
2019-06-07T05:27:48.249Z,131.40
2019-06-07T05:28:23.674Z,139.70
2019-06-07T05:28:59.053Z,117.70
2019-06-07T05:29:36.775Z,124.70
2019-06-07T05:30:36.625Z,128.30
2019-06-07T05:31:05.120Z,124.10
2019-06-07T05:31:21.069Z,142.60
2019-06-07T05:31:56.340Z,131.50
2019-06-07T05:32:32.864Z,122.20
2019-06-07T05:33:07.262Z,119.60
2019-06-07T05:33:43.537Z,120.50
2019-06-07T05:34:18.480Z,106.00
2019-06-07T05:34:53.858Z,110.60
2019-06-07T05:35:30.563Z,131.70
2019-06-07T05:36:04.678Z,132.10
2019-06-07T05:36:42.498Z,128.20
2019-06-07T05:37:15.319Z,130.40
2019-06-07T05:37:51.274Z,147.80
2019-06-07T05:38:26.825Z,123.60
2019-06-07T05:39:02.077Z,132.70
2019-06-07T05:39:40.400Z,126.80
2019-06-07T05:40:12.891Z,111.00
2019-06-07T05:40:49.019Z,108.60
2019-06-07T05:41:24.446Z,108.70
2019-06-07T05:41:59.850Z,133.10
2019-06-07T05:42:38.573Z,140.20
2019-06-07T05:43:10.253Z,132.70
2019-06-07T05:43:55.101Z,110.30
2019-06-07T05:44:21.079Z,111.50
2019-06-07T05:44:56.515Z,111.60
2019-06-07T05:45:32.345Z,135.70
2019-06-07T05:46:07.563Z,129.80
2019-06-07T05:46:46.691Z,107.80
2019-06-07T05:47:18.807Z,103.40
2019-06-07T05:47:54.921Z,103.70
2019-06-07T05:48:29.838Z,104.40
2019-06-07T05:49:05.136Z,117.50
2019-06-07T05:49:43.844Z,112.00
2019-06-07T05:50:38.442Z,94.90
2019-06-07T05:50:56.823Z,142.00
2019-06-07T05:51:26.615Z,156.20
2019-06-07T05:52:01.938Z,136.10
2019-06-07T05:52:41.718Z,134.90
2019-06-07T05:53:12.816Z,106.80
2019-06-07T05:53:48.145Z,165.10
2019-06-07T05:54:23.283Z,148.80
2019-06-07T05:54:58.451Z,134.90
2019-06-07T05:55:35.165Z,119.70
2019-06-07T05:56:09.315Z,103.50
2019-06-07T05:56:45.315Z,144.50
2019-06-07T05:57:20.056Z,128.60
2019-06-07T05:57:55.492Z,130.20
2019-06-07T05:58:30.689Z,130.70
2019-06-07T05:59:06.216Z,111.00
2019-06-07T05:59:44.268Z,108.50
2019-06-07T06:00:16.830Z,134.10
2019-06-07T06:00:52.539Z,174.00
2019-06-07T06:01:42.816Z,151.70
2019-06-07T06:02:21.205Z,115.10
2019-06-07T06:02:58.583Z,122.20
2019-06-07T06:03:14.125Z,138.50
2019-06-07T06:03:49.653Z,142.10
2019-06-07T06:04:24.974Z,139.80
2019-06-07T06:05:00.481Z,109.40
2019-06-07T06:05:41.649Z,132.30
2019-06-07T06:06:11.085Z,138.10
2019-06-07T06:06:47.214Z,99.50
2019-06-07T06:07:21.919Z,89.50
2019-06-07T06:07:57.401Z,141.60
2019-06-07T06:08:36.106Z,121.80
2019-06-07T06:09:13.831Z,101.40
2019-06-07T06:09:45.950Z,108.60
2019-06-07T06:10:19.351Z,112.40
2019-06-07T06:10:54.890Z,115.70
2019-06-07T06:11:47.037Z,97.20
2019-06-07T06:12:06.160Z,114.70
2019-06-07T06:12:46.046Z,114.10
2019-06-07T06:13:16.974Z,105.80
2019-06-07T06:14:06.538Z,106.70
2019-06-07T06:14:28.081Z,98.80
2019-06-07T06:15:03.470Z,58.90
2019-06-07T06:15:48.634Z,45.80
2019-06-07T06:16:14.190Z,39.00
2019-06-07T06:16:50.257Z,53.50
2019-06-07T06:17:25.739Z,42.80
2019-06-07T06:18:01.364Z,71.10
2019-06-07T06:18:38.040Z,86.70
2019-06-07T06:19:12.177Z,66.10
2019-06-07T06:19:50.403Z,43.70
2019-06-07T06:20:22.904Z,79.70
2019-06-07T06:21:18.048Z,48.50
2019-06-07T06:21:34.059Z,60.40
2019-06-07T06:22:09.634Z,49.40
2019-06-07T06:22:50.572Z,39.80
2019-06-07T06:23:20.583Z,28.50
2019-06-07T06:23:55.885Z,45.00
2019-06-07T06:24:31.380Z,48.40
2019-06-07T06:25:34.830Z,44.00
2019-06-07T06:25:49.782Z,37.00
2019-06-07T06:26:17.239Z,38.10
2019-06-07T06:27:00.312Z,72.60
2019-06-07T06:28:03.330Z,105.80
2019-06-07T06:28:10.839Z,86.70
2019-06-07T06:28:40.054Z,64.90
2019-06-07T06:29:14.368Z,104.80
2019-06-07T06:29:50.301Z,107.90
2019-06-07T06:30:24.992Z,119.00
2019-06-07T06:31:00.639Z,113.20
2019-06-07T06:31:37.759Z,108.50
2019-06-07T06:32:48.819Z,108.70
2019-06-07T06:32:52.745Z,177.30
2019-06-07T06:33:33.777Z,154.10
2019-06-07T06:33:57.433Z,161.00
2019-06-07T06:34:32.596Z,145.20
2019-06-07T06:35:08.060Z,156.40
2019-06-07T06:35:48.406Z,158.30
2019-06-07T06:36:19.411Z,167.90
2019-06-07T06:36:54.382Z,152.90
2019-06-07T06:37:29.666Z,147.70
2019-06-07T06:38:05.321Z,143.30
2019-06-07T06:38:41.393Z,160.60
2019-06-07T06:39:15.984Z,161.40
2019-06-07T06:39:51.262Z,142.00
2019-06-07T06:40:26.610Z,125.70
2019-06-07T06:41:15.393Z,189.60
2019-06-07T06:41:53.738Z,211.20
2019-06-07T06:42:12.863Z,200.60
2019-06-07T06:42:49.053Z,192.20
2019-06-07T06:43:23.805Z,228.20
2019-06-07T06:43:59.546Z,206.60
2019-06-07T06:44:35.030Z,186.60
2019-06-07T06:45:10.269Z,229.90
2019-06-07T06:45:47.823Z,212.90
2019-06-07T06:46:38.103Z,215.40
2019-06-07T06:46:58.306Z,190.90
2019-06-07T06:47:32.668Z,171.70
2019-06-07T06:48:07.975Z,165.50
2019-06-07T06:48:48.297Z,238.60
2019-06-07T06:49:19.119Z,215.30
2019-06-07T06:49:54.765Z,198.80
2019-06-07T06:50:30.159Z,188.00
2019-06-07T06:51:05.393Z,198.10
2019-06-07T06:51:43.005Z,203.30
2019-06-07T06:52:16.457Z,201.50
2019-06-07T06:52:54.642Z,202.80
2019-06-07T06:53:27.482Z,206.30
2019-06-07T06:54:02.693Z,193.60
2019-06-07T06:54:42.958Z,201.00
2019-06-07T06:55:13.411Z,203.10
2019-06-07T06:55:50.932Z,231.90
2019-06-07T06:56:24.336Z,231.00
2019-06-07T06:57:18.091Z,214.40
2019-06-07T06:57:35.409Z,201.00
2019-06-07T06:58:11.399Z,190.60
2019-06-07T06:59:33.077Z,184.80
2019-06-07T06:59:38.188Z,212.10
2019-06-07T06:59:57.717Z,223.20
2019-06-07T07:00:43.549Z,185.10
2019-06-07T07:01:08.653Z,194.50
2019-06-07T07:01:45.145Z,204.70
2019-06-07T07:02:19.633Z,204.40
2019-06-07T07:03:41.838Z,220.20
2019-06-07T07:03:57.146Z,210.80
2019-06-07T07:04:13.050Z,207.20
2019-06-07T07:04:42.283Z,201.90
2019-06-07T07:05:16.377Z,203.80
2019-06-07T07:05:54.738Z,193.20
2019-06-07T07:06:27.267Z,193.00
2019-06-07T07:07:02.746Z,183.60
2019-06-07T07:07:37.982Z,180.00
2019-06-07T07:08:13.382Z,202.70
2019-06-07T07:08:50.839Z,217.40
2019-06-07T07:09:24.502Z,207.80
2019-06-07T07:10:00.209Z,198.20
2019-06-07T07:10:35.226Z,194.70
2019-06-07T07:11:10.468Z,210.00
2019-06-07T07:12:08.955Z,216.40
2019-06-07T07:12:21.543Z,198.00
2019-06-07T07:12:57.132Z,178.40
2019-06-07T07:13:32.281Z,183.50
2019-06-07T07:14:07.557Z,184.00
2019-06-07T07:14:45.555Z,201.00
2019-06-07T07:15:18.787Z,205.90
2019-06-07T07:15:58.178Z,203.60
2019-06-07T07:16:29.940Z,191.70
2019-06-07T07:17:05.389Z,176.80
2019-06-07T07:17:58.310Z,176.50
2019-06-07T07:18:16.197Z,225.10
2019-06-07T07:18:54.432Z,229.80
2019-06-07T07:19:27.130Z,196.10
2019-06-07T07:20:02.704Z,170.20
2019-06-07T07:20:38.136Z,244.00
2019-06-07T07:21:13.621Z,224.70
2019-06-07T07:21:50.612Z,218.00
2019-06-07T07:22:24.437Z,237.80
2019-06-07T07:22:59.570Z,203.10
2019-06-07T07:23:35.144Z,195.40
2019-06-07T07:24:21.107Z,219.70
2019-06-07T07:24:47.027Z,210.70